San José, Costa Rica

7:10 PM CST on March 28, 2015 (GMT -0600)
San Pedro, Montes de Oca | | Change Station
CLOSE
Current Station
Personal Weather Station
Location: San Pedro, SAN JOSE
Elevation: 3960 ft
Nearby Weather Stations

Elev 3960 ft 9.94 °N, 84.05 °W | Updated 10 seconds ago

Mostly Cloudy
Mostly Cloudy
67.0 °F
Feels Like 67.0 °F
N
5.0
Wind Variable Wind from NNE
Gusts 5.0 mph

Today
High -- | Low -- °F
--% Chance of Precip.
Yesterday
High -- | Low -- °F
Precip. -- in
5:35 AM 5:46 PM
Waxing Gibbous, 67% visible
Pressure 30.07 in
Visibility 6.2 miles
Clouds Few 4000 ft
Mostly Cloudy 20000 ft
Dew Point 58 °F
Humidity 74%
Rainfall 0.00 in
Snow Depth Not available.
UV 0.0 out of 12
Pollen Not available.
Air Quality Not available.
Flu Activity Not available.
METAR MROC 290100Z 11006KT 9999 FEW040 BKN200 23/16 A3007 NOSIG

More Conditions Fewer Conditions

Pressure 30.07 in
Visibility 6.2 miles
Clouds Few 4000 ft
Mostly Cloudy 20000 ft
Dew Point 58 °F
Humidity 74%
Rainfall 0.00 in
Snow Depth Not available.
UV 0.0 out of 12
Pollen Not available.
Air Quality Not available.
Flu Activity Not available.
METAR MROC 290100Z 11006KT 9999 FEW040 BKN200 23/16 A3007 NOSIG

More Conditions Fewer Conditions

10-Day Weather Forecast

Almanac

Astronomy

Mar. 28, 2015 Rise Set
Actual Time
Civil Twilight
Nautical Twilight
Astronomical Twilight
Moon
Length of Visible Light
Length of Day
Tomorrow will be .
, % of the Moon is Illuminated

Today's Extremes

Country Highs Country Lows

Community

WunderPhotos

Upload Photos

1,809,143 photos uploaded!

WunderBlogs® & News

Nearby

Air Quality

  Air Quality AQ Index Pollutant
Not available.

Snow Depth

Station Depth Elevation

Earthquake Activity

City Distance Mag. Time & Date
Minimum magnitude displayed is 2.5.

Coastal Water Temperatures

Place Temperature

Stations

Nearby Weather Stations

Station Location Temp. Windchill Dew Point Humidity Wind Precip. Elev Updated Type